This is the latest recevied weather packets stored in our database for station/object LIPZ. If no packets are shown the sender has not sent any weather packets the latest 10 day(s).
| Time | Temp. | Humidity | Pressure | Rain* | Wind** | Luminosity | Snow |
|---|---|---|---|---|---|---|---|
| 1788418803 | 22.78° C | 60% | 1018 hPa | - | - | - | - |
| 1788417903 | 22.22° C | 64% | 1018 hPa | - | - | - | - |
| 1788417004 | 22.22° C | 64% | 1018 hPa | - | - | - | - |
| 1788415204 | 22.22° C | 64% | 1018 hPa | - | - | - | - |
| 1788413403 | 22.22° C | 64% | 1018 hPa | - | - | - | - |
| 1788410703 | 21.11° C | 73% | 1018 hPa | - | - | - | - |
| 1788409803 | 21.11° C | 73% | 1018 hPa | - | - | - | - |
| 1788408903 | 21.11° C | 68% | 1018 hPa | - | - | - | - |
| 1788408004 | 21.11° C | 68% | 1018 hPa | - | - | - | - |
| 1788407103 | 21.11° C | 73% | 1018 hPa | - | - | - | - |
| 1788406203 | 21.11° C | 73% | 1018 hPa | - | - | - | - |
| 1788404403 | 21.11° C | 82% | 1018 hPa | - | - | - | - |
| 1788403503 | 21.11° C | 82% | 1018 hPa | - | - | - | - |
| 1788402604 | 21.11° C | 82% | 1018 hPa | - | - | - | - |
| 1788400804 | 22.22° C | 78% | 1018 hPa | - | - | - | - |
| 1788399003 | 22.22° C | 78% | 1018 hPa | - | - | - | - |
| 1788398103 | 22.78° C | 68% | 1017 hPa | - | - | - | - |
| 1788397203 | 22.78° C | 68% | 1017 hPa | - | - | - | - |
| 1788395404 | 22.22° C | 78% | 1017 hPa | - | - | - | - |
| 1788394506 | 23.89° C | 69% | 1018 hPa | - | - | - | - |
| 1788393603 | 23.89° C | 69% | 1018 hPa | - | - | - | - |
| 1788391804 | 22.78° C | 83% | 1017 hPa | - | - | - | - |
| 1788390004 | 23.89° C | 78% | 1017 hPa | - | - | - | - |
| 1788388203 | 23.89° C | 83% | 1017 hPa | - | - | - | - |
| 1788387303 | 22.78° C | 88% | 1017 hPa | - | - | - | - |
* Rain since midnight (hover to see other rain measurements)
** Current wind speed in m/s (hover to see current wind gust speed)